Time;durP1;ratioP1;P1;durP2;ratioP2;P2;SDS_P1;SDS_P2;PMS_P1;PMS_P2;Temp;Humidity;BMP_temperature;BMP_pressure;BME280_temperature;BME280_humidity;BME280_pressure;Samples;Min_cycle;Max_cycle;Signal;HPM_P1;HPM_P2
2023/05/30 00:00:14;;;;;;;0.17;0.17;;;10.80;99.90;;;;;;5057739;28;20177;-82
2023/05/30 00:02:43;;;;;;;0.20;0.20;;;10.80;99.90;;;;;;5066970;28;20239;-82
2023/05/30 00:05:09;;;;;;;0.20;0.20;;;10.60;99.90;;;;;;5084838;28;20438;-82
2023/05/30 00:07:35;;;;;;;0.20;0.20;;;10.60;99.90;;;;;;5069785;28;20436;-82
2023/05/30 00:10:01;;;;;;;0.20;0.20;;;10.60;99.90;;;;;;5062696;28;20450;-81
2023/05/30 00:12:27;;;;;;;0.20;0.20;;;10.70;99.90;;;;;;5062396;28;20463;-82
2023/05/30 00:14:55;;;;;;;0.20;0.20;;;10.70;99.90;;;;;;5077134;28;20197;-82
2023/05/30 00:17:21;;;;;;;0.20;0.20;;;10.50;99.90;;;;;;5067550;28;20184;-82
2023/05/30 00:19:47;;;;;;;0.20;0.20;;;10.60;99.90;;;;;;5078193;28;20537;-82
2023/05/30 00:22:13;;;;;;;0.20;0.20;;;10.50;99.90;;;;;;5056382;28;20477;-82
2023/05/30 00:24:38;;;;;;;0.20;0.20;;;10.50;99.90;;;;;;5065466;28;20563;-82
2023/05/30 00:27:05;;;;;;;0.20;0.20;;;10.50;99.90;;;;;;5067039;28;20229;-83
2023/05/30 00:29:30;;;;;;;0.20;0.20;;;10.40;99.90;;;;;;5067947;28;20673;-82
2023/05/30 00:31:56;;;;;;;0.20;0.20;;;10.40;99.90;;;;;;5060606;28;20630;-81
2023/05/30 00:34:21;;;;;;;0.20;0.20;;;10.40;99.90;;;;;;5065310;28;20323;-83
2023/05/30 00:36:48;;;;;;;0.20;0.20;;;10.40;99.90;;;;;;5055472;28;20668;-82
2023/05/30 00:39:16;;;;;;;0.20;0.20;;;10.20;99.90;;;;;;5086527;28;20219;-83
2023/05/30 00:41:42;;;;;;;0.20;0.20;;;10.20;99.90;;;;;;5069664;28;20444;-82
2023/05/30 00:44:07;;;;;;;0.20;0.20;;;10.30;99.90;;;;;;5067855;28;20468;-82
2023/05/30 00:46:33;;;;;;;0.20;0.20;;;10.30;99.90;;;;;;5076272;28;20319;-83
2023/05/30 00:48:59;;;;;;;0.10;0.10;;;10.30;99.90;;;;;;5066984;28;20224;-82
2023/05/30 00:51:27;;;;;;;0.20;0.20;;;10.40;99.90;;;;;;5054008;28;20197;-82
2023/05/30 00:53:54;;;;;;;0.20;0.20;;;10.30;99.90;;;;;;5051570;28;20480;-83
2023/05/30 00:56:22;;;;;;;0.20;0.20;;;10.20;99.90;;;;;;5072875;28;20440;-83
2023/05/30 00:58:49;;;;;;;0.20;0.20;;;10.20;99.90;;;;;;5058862;28;20865;-83
2023/05/30 01:01:15;;;;;;;0.20;0.20;;;10.20;99.90;;;;;;5076508;28;20842;-83
2023/05/30 01:03:40;;;;;;;0.20;0.20;;;10.20;99.90;;;;;;5066403;28;20443;-82
2023/05/30 01:06:06;;;;;;;0.20;0.20;;;10.10;99.90;;;;;;5065149;28;20185;-82
2023/05/30 01:08:32;;;;;;;0.20;0.20;;;10.00;99.90;;;;;;5072420;28;20586;-82
2023/05/30 01:11:24;;;;;;;0.20;0.20;;;10.00;99.90;;;;;;5077775;28;20183;-82
2023/05/30 01:14:27;;;;;;;0.20;0.20;;;10.10;99.90;;;;;;5075897;28;20253;-83
2023/05/30 01:17:00;;;;;;;0.20;0.20;;;9.90;99.90;;;;;;5065414;28;20440;-83
2023/05/30 01:19:46;;;;;;;0.20;0.20;;;9.90;99.90;;;;;;5061178;28;20465;-83
2023/05/30 01:22:39;;;;;;;0.20;0.20;;;9.80;99.90;;;;;;5074978;28;20459;-83
2023/05/30 01:25:17;;;;;;;0.20;0.20;;;9.90;99.90;;;;;;5072763;28;20444;-83
2023/05/30 01:27:54;;;;;;;0.20;0.20;;;9.70;99.90;;;;;;5083560;28;20444;-83
2023/05/30 01:30:22;;;;;;;0.20;0.20;;;9.80;99.90;;;;;;5049577;28;20452;-82
2023/05/30 01:32:47;;;;;;;0.20;0.20;;;9.80;99.90;;;;;;5072216;28;20506;-83
2023/05/30 01:35:23;;;;;;;0.20;0.20;;;9.70;99.90;;;;;;5052858;28;21029;-83
2023/05/30 01:37:49;;;;;;;0.20;0.20;;;9.70;99.90;;;;;;5065013;28;20566;-83
2023/05/30 01:40:22;;;;;;;0.20;0.20;;;9.80;99.90;;;;;;5082101;28;21014;-83
2023/05/30 01:42:53;;;;;;;0.20;0.20;;;9.60;99.90;;;;;;5074553;28;20192;-83
2023/05/30 01:45:28;;;;;;;0.20;0.20;;;9.60;99.90;;;;;;5050010;28;20963;-83
2023/05/30 01:48:00;;;;;;;0.20;0.20;;;9.60;99.90;;;;;;5073289;28;20430;-83
2023/05/30 01:50:31;;;;;;;0.20;0.20;;;9.70;99.90;;;;;;5070229;28;20482;-84
2023/05/30 01:53:00;;;;;;;0.20;0.20;;;9.80;99.90;;;;;;5075114;28;20484;-83
2023/05/30 01:55:27;;;;;;;0.20;0.20;;;9.80;99.90;;;;;;5051001;28;20440;-83
2023/05/30 01:57:55;;;;;;;0.20;0.20;;;9.70;99.90;;;;;;5077927;28;21007;-84
2023/05/30 02:00:21;;;;;;;0.20;0.20;;;9.70;99.90;;;;;;5078439;28;20444;-83
2023/05/30 02:02:47;;;;;;;0.20;0.20;;;9.70;99.90;;;;;;5053186;28;20509;-83
2023/05/30 02:05:12;;;;;;;0.20;0.20;;;9.60;99.90;;;;;;5071904;28;20198;-83
2023/05/30 02:07:38;;;;;;;0.20;0.20;;;9.60;99.90;;;;;;5054749;28;20466;-83
2023/05/30 02:10:05;;;;;;;0.20;0.20;;;9.70;99.90;;;;;;5076981;28;20246;-83
2023/05/30 02:12:30;;;;;;;0.20;0.20;;;9.70;99.90;;;;;;5067150;28;20208;-83
2023/05/30 02:14:56;;;;;;;0.20;0.20;;;9.60;99.90;;;;;;5068442;28;20471;-84
2023/05/30 02:17:22;;;;;;;0.20;0.20;;;9.60;99.90;;;;;;5065282;28;20548;-83
2023/05/30 02:19:50;;;;;;;0.20;0.20;;;9.60;99.90;;;;;;5071343;28;20186;-82
2023/05/30 02:22:17;;;;;;;0.20;0.20;;;9.60;99.90;;;;;;5069662;28;20559;-83
2023/05/30 02:24:42;;;;;;;0.20;0.20;;;9.60;99.90;;;;;;5056000;28;20534;-83
2023/05/30 02:27:08;;;;;;;0.20;0.20;;;9.60;99.90;;;;;;5076874;28;20844;-83
2023/05/30 02:29:34;;;;;;;0.20;0.20;;;9.60;99.90;;;;;;5068067;28;21145;-83
2023/05/30 02:31:59;;;;;;;0.20;0.20;;;9.60;99.90;;;;;;5069573;28;20259;-82
2023/05/30 02:34:25;;;;;;;0.20;0.20;;;9.60;99.90;;;;;;5068848;28;20280;-82
2023/05/30 02:36:50;;;;;;;0.20;0.20;;;9.50;99.90;;;;;;5070518;28;20235;-82
2023/05/30 02:39:16;;;;;;;0.20;0.20;;;9.50;99.90;;;;;;5069969;28;20605;-82
2023/05/30 02:41:42;;;;;;;0.20;0.20;;;9.60;99.90;;;;;;5087276;28;20207;-82
2023/05/30 02:44:07;;;;;;;0.20;0.20;;;9.70;99.90;;;;;;5066955;28;20295;-82
2023/05/30 02:46:34;;;;;;;0.20;0.20;;;9.70;99.90;;;;;;5070561;28;20291;-83
2023/05/30 02:49:01;;;;;;;0.20;0.20;;;9.80;99.90;;;;;;5073732;28;20186;-83
2023/05/30 02:51:26;;;;;;;0.20;0.20;;;9.90;99.90;;;;;;5070909;28;20501;-83
2023/05/30 02:53:53;;;;;;;0.20;0.20;;;10.00;99.90;;;;;;5083089;28;20553;-83
2023/05/30 02:56:20;;;;;;;0.20;0.20;;;10.00;99.90;;;;;;5084608;28;20553;-83
2023/05/30 02:58:46;;;;;;;0.20;0.20;;;10.20;99.90;;;;;;5068365;28;20582;-82
2023/05/30 03:01:11;;;;;;;0.20;0.20;;;10.20;99.90;;;;;;5074856;28;20514;-85
2023/05/30 03:03:37;;;;;;;0.20;0.20;;;10.20;99.90;;;;;;5078031;28;20194;-84
2023/05/30 03:06:04;;;;;;;0.20;0.20;;;10.30;99.90;;;;;;5065402;28;20292;-83
2023/05/30 03:08:30;;;;;;;0.20;0.20;;;10.30;99.90;;;;;;5072482;28;20189;-83
2023/05/30 03:10:55;;;;;;;0.20;0.20;;;10.40;99.90;;;;;;5073939;28;20979;-83
2023/05/30 03:13:21;;;;;;;0.20;0.20;;;10.40;99.90;;;;;;5080252;28;20220;-84
2023/05/30 03:15:47;;;;;;;0.20;0.20;;;10.40;99.90;;;;;;5050273;28;21019;-85
2023/05/30 03:18:12;;;;;;;0.20;0.20;;;10.40;99.90;;;;;;5052882;28;20700;-85
2023/05/30 03:20:38;;;;;;;0.20;0.20;;;10.50;99.90;;;;;;5069597;28;20516;-84
2023/05/30 03:23:04;;;;;;;0.20;0.20;;;10.50;99.90;;;;;;5074934;28;20220;-85
2023/05/30 03:25:29;;;;;;;0.20;0.20;;;10.50;99.90;;;;;;5056063;28;20234;-85
2023/05/30 03:27:55;;;;;;;0.20;0.20;;;10.60;99.90;;;;;;5078911;28;20191;-84
2023/05/30 03:30:22;;;;;;;0.20;0.20;;;10.60;99.90;;;;;;5055306;28;20193;-83
2023/05/30 03:32:48;;;;;;;0.20;0.20;;;10.70;99.90;;;;;;5069991;28;20655;-82
2023/05/30 03:35:14;;;;;;;0.10;0.10;;;10.70;99.90;;;;;;5069937;28;20439;-83
2023/05/30 03:37:40;;;;;;;0.20;0.20;;;10.60;99.90;;;;;;5078744;28;20864;-83
2023/05/30 03:40:08;;;;;;;0.20;0.20;;;10.80;99.90;;;;;;5073138;28;20869;-83
2023/05/30 03:42:34;;;;;;;0.20;0.20;;;10.80;99.90;;;;;;5054405;28;20308;-82
2023/05/30 03:45:00;;;;;;;0.20;0.20;;;10.90;99.90;;;;;;5071117;28;20448;-82
2023/05/30 03:47:25;;;;;;;0.20;0.20;;;10.80;99.90;;;;;;5067766;28;20484;-85
2023/05/30 03:49:52;;;;;;;0.20;0.20;;;10.90;99.90;;;;;;5083078;28;20189;-85
2023/05/30 03:52:17;;;;;;;0.20;0.20;;;10.90;99.90;;;;;;5073911;28;20208;-84
2023/05/30 03:54:44;;;;;;;0.20;0.20;;;10.90;99.90;;;;;;5048843;28;20522;-85
2023/05/30 03:57:10;;;;;;;0.20;0.20;;;10.80;99.90;;;;;;5049945;28;20186;-82
2023/05/30 03:59:36;;;;;;;0.20;0.20;;;10.90;99.90;;;;;;5074273;28;20453;-83
2023/05/30 04:02:01;;;;;;;0.20;0.20;;;10.90;99.90;;;;;;5069051;28;20194;-83
2023/05/30 04:04:27;;;;;;;0.20;0.20;;;11.00;99.90;;;;;;5067328;28;20239;-83
2023/05/30 04:06:53;;;;;;;0.20;0.20;;;11.00;99.90;;;;;;5088236;28;20189;-83
2023/05/30 04:09:19;;;;;;;0.20;0.20;;;11.00;99.90;;;;;;5077017;28;20260;-83
2023/05/30 04:11:44;;;;;;;0.20;0.20;;;11.10;99.90;;;;;;5080133;28;20539;-82
2023/05/30 04:14:10;;;;;;;0.20;0.20;;;11.10;99.90;;;;;;5056610;28;20284;-83
2023/05/30 04:16:35;;;;;;;0.20;0.20;;;11.10;99.90;;;;;;5074478;28;20269;-82
2023/05/30 04:19:01;;;;;;;0.20;0.20;;;11.20;99.90;;;;;;5069229;28;20638;-82
2023/05/30 04:21:27;;;;;;;0.20;0.20;;;11.20;99.90;;;;;;5082916;28;20189;-82
2023/05/30 04:23:52;;;;;;;0.20;0.20;;;11.20;99.90;;;;;;5070533;28;20564;-82
2023/05/30 04:26:18;;;;;;;0.20;0.20;;;11.20;99.90;;;;;;5069305;28;20197;-82
2023/05/30 04:28:43;;;;;;;0.20;0.20;;;11.20;99.90;;;;;;5059681;28;20197;-84
2023/05/30 04:31:10;;;;;;;0.20;0.20;;;11.30;99.90;;;;;;5058328;28;20186;-82
2023/05/30 04:33:37;;;;;;;0.10;0.10;;;11.40;99.90;;;;;;5082130;28;20234;-82
2023/05/30 04:36:08;;;;;;;0.20;0.20;;;11.20;99.90;;;;;;5067443;28;20492;-83
2023/05/30 04:38:34;;;;;;;0.20;0.20;;;11.20;99.90;;;;;;5049686;28;20440;-82
2023/05/30 04:41:01;;;;;;;0.20;0.20;;;11.30;99.90;;;;;;5060938;28;20433;-82
2023/05/30 04:43:30;;;;;;;0.17;0.17;;;11.40;99.90;;;;;;5062657;28;20455;-82
2023/05/30 04:46:00;;;;;;;0.10;0.10;;;11.40;99.90;;;;;;5069117;28;20439;-82
2023/05/30 04:48:29;;;;;;;0.13;0.13;;;11.40;99.90;;;;;;5087783;28;20878;-82
2023/05/30 04:50:54;;;;;;;0.20;0.20;;;11.30;99.90;;;;;;5056376;28;22386;-82
2023/05/30 04:53:20;;;;;;;0.20;0.20;;;11.40;99.90;;;;;;5081136;28;20489;-82
2023/05/30 04:55:46;;;;;;;0.10;0.10;;;11.50;99.90;;;;;;5080817;28;20181;-82
2023/05/30 04:58:12;;;;;;;0.20;0.20;;;11.60;99.90;;;;;;5075757;28;20229;-80
2023/05/30 05:00:38;;;;;;;0.20;0.20;;;11.60;99.90;;;;;;5055263;28;21066;-82
2023/05/30 05:03:04;;;;;;;0.20;0.20;;;11.60;99.90;;;;;;5066847;28;20262;-81
2023/05/30 05:05:30;;;;;;;0.10;0.10;;;11.60;99.90;;;;;;5067956;28;20472;-84
2023/05/30 05:07:55;;;;;;;0.20;0.20;;;11.50;99.90;;;;;;5075535;28;20986;-84
2023/05/30 05:10:21;;;;;;;0.10;0.10;;;11.50;99.90;;;;;;5069166;28;20202;-84
2023/05/30 05:12:46;;;;;;;0.10;0.10;;;11.60;99.90;;;;;;5046258;28;20229;-84
2023/05/30 05:15:12;;;;;;;0.10;0.10;;;11.50;99.90;;;;;;5063692;28;20673;-80
2023/05/30 05:17:38;;;;;;;0.20;0.20;;;11.60;99.90;;;;;;5072387;28;20217;-84
2023/05/30 05:20:07;;;;;;;0.20;0.20;;;11.70;99.90;;;;;;5069899;28;20464;-83
2023/05/30 05:22:34;;;;;;;0.20;0.20;;;11.70;99.90;;;;;;5086072;28;20186;-82
2023/05/30 05:25:00;;;;;;;0.20;0.20;;;11.60;99.90;;;;;;5080710;28;20464;-82
2023/05/30 05:27:28;;;;;;;0.10;0.10;;;11.60;99.90;;;;;;5066920;28;20452;-80
2023/05/30 05:29:54;;;;;;;0.10;0.10;;;11.70;99.90;;;;;;5062001;28;21922;-82
2023/05/30 05:32:19;;;;;;;0.10;0.10;;;11.80;99.90;;;;;;5069167;28;20464;-82
2023/05/30 05:34:45;;;;;;;0.20;0.20;;;11.80;99.90;;;;;;5071510;28;20650;-82
2023/05/30 05:37:10;;;;;;;0.10;0.10;;;11.80;99.90;;;;;;5072578;28;20209;-80
2023/05/30 05:39:36;;;;;;;0.20;0.20;;;11.90;99.90;;;;;;5070991;28;20210;-81
2023/05/30 05:42:02;;;;;;;0.20;0.20;;;11.90;99.90;;;;;;5070694;28;20257;-83
2023/05/30 05:44:29;;;;;;;0.10;0.10;;;11.90;99.90;;;;;;5074062;28;20184;-82
2023/05/30 05:46:55;;;;;;;0.10;0.10;;;11.90;99.90;;;;;;5071120;28;20521;-82
2023/05/30 05:49:20;;;;;;;0.17;0.17;;;11.90;99.90;;;;;;5068828;28;20471;-81
2023/05/30 05:51:46;;;;;;;0.10;0.10;;;11.90;99.90;;;;;;5071139;28;20194;-82
2023/05/30 05:54:11;;;;;;;0.20;0.20;;;11.90;99.90;;;;;;5049342;28;20186;-82
2023/05/30 05:56:37;;;;;;;0.20;0.20;;;11.90;99.90;;;;;;5066652;28;20918;-81
2023/05/30 05:59:03;;;;;;;0.10;0.10;;;11.90;99.90;;;;;;5070540;28;20237;-82
2023/05/30 06:01:28;;;;;;;0.10;0.10;;;11.90;99.90;;;;;;5071340;28;20182;-83
2023/05/30 06:03:54;;;;;;;0.10;0.10;;;11.90;99.90;;;;;;5055476;28;20845;-83
2023/05/30 06:06:20;;;;;;;0.20;0.20;;;11.90;99.90;;;;;;5080201;28;20271;-83
2023/05/30 06:08:49;;;;;;;0.20;0.20;;;12.00;99.90;;;;;;5068464;28;20660;-83
2023/05/30 06:11:14;;;;;;;0.20;0.20;;;11.90;99.90;;;;;;5054416;28;20222;-83
2023/05/30 06:13:40;;;;;;;0.20;0.20;;;12.00;99.90;;;;;;5081142;28;20571;-83
2023/05/30 06:16:05;;;;;;;0.13;0.13;;;12.00;99.90;;;;;;5074677;28;20181;-83
2023/05/30 06:18:31;;;;;;;0.20;0.20;;;12.10;99.90;;;;;;5055187;28;20691;-84
2023/05/30 06:20:56;;;;;;;0.10;0.10;;;12.10;99.90;;;;;;5070101;28;20234;-83
2023/05/30 06:23:22;;;;;;;0.10;0.10;;;12.10;99.90;;;;;;5076713;28;20193;-83
2023/05/30 06:25:48;;;;;;;0.20;0.20;;;11.90;99.90;;;;;;5075005;28;20177;-83
2023/05/30 06:28:13;;;;;;;0.10;0.10;;;12.00;99.90;;;;;;5062622;28;20337;-81
2023/05/30 06:30:39;;;;;;;0.20;0.20;;;11.90;99.90;;;;;;5066783;28;20260;-82
2023/05/30 06:33:04;;;;;;;0.10;0.10;;;11.90;99.90;;;;;;5068176;28;20312;-82
2023/05/30 06:35:30;;;;;;;0.13;0.13;;;11.80;99.90;;;;;;5071552;28;20273;-82
2023/05/30 06:37:55;;;;;;;0.10;0.10;;;11.90;99.90;;;;;;5071899;28;20545;-82
2023/05/30 06:40:21;;;;;;;0.10;0.10;;;11.90;99.90;;;;;;5051508;28;20191;-82
2023/05/30 06:42:46;;;;;;;0.13;0.13;;;11.90;99.90;;;;;;5050742;28;20182;-82
2023/05/30 06:45:12;;;;;;;0.10;0.10;;;12.00;99.90;;;;;;5065468;28;20197;-82
2023/05/30 06:47:38;;;;;;;0.10;0.10;;;11.90;99.90;;;;;;5065513;28;20193;-82
2023/05/30 06:50:06;;;;;;;0.20;0.20;;;11.80;99.90;;;;;;5076346;28;20443;-82
2023/05/30 06:52:31;;;;;;;0.10;0.10;;;12.00;99.90;;;;;;5092042;28;20219;-82
2023/05/30 06:54:56;;;;;;;0.13;0.13;;;12.10;99.90;;;;;;5064200;28;20441;-83
2023/05/30 06:57:22;;;;;;;0.10;0.10;;;12.00;99.90;;;;;;5066133;28;20182;-83
2023/05/30 06:59:47;;;;;;;0.10;0.10;;;12.10;99.90;;;;;;5064210;28;20197;-83
2023/05/30 07:02:13;;;;;;;0.10;0.10;;;12.20;99.90;;;;;;5050870;28;20177;-83
2023/05/30 07:04:38;;;;;;;0.10;0.10;;;12.20;99.90;;;;;;5070890;28;20241;-83
2023/05/30 07:07:05;;;;;;;0.10;0.10;;;12.30;99.90;;;;;;5066075;28;20186;-83
2023/05/30 07:09:31;;;;;;;0.10;0.10;;;12.30;99.90;;;;;;5060773;28;20182;-83
2023/05/30 07:11:56;;;;;;;0.20;0.20;;;12.40;99.90;;;;;;5087340;28;20438;-82
2023/05/30 07:14:22;;;;;;;0.10;0.10;;;12.50;99.90;;;;;;5074627;28;20190;-83
2023/05/30 07:16:47;;;;;;;0.10;0.10;;;12.60;99.90;;;;;;5061338;28;20181;-83
2023/05/30 07:19:13;;;;;;;0.10;0.10;;;12.60;99.90;;;;;;5073448;28;20264;-82
2023/05/30 07:21:39;;;;;;;0.10;0.10;;;12.70;99.90;;;;;;5075067;28;20193;-82
2023/05/30 07:24:04;;;;;;;0.10;0.10;;;12.70;99.90;;;;;;5069509;28;20232;-85
2023/05/30 07:26:30;;;;;;;0.10;0.10;;;12.60;99.90;;;;;;5052423;28;20454;-85
2023/05/30 07:28:57;;;;;;;0.10;0.10;;;12.70;99.90;;;;;;5072322;28;20190;-85
2023/05/30 07:31:23;;;;;;;0.10;0.10;;;12.70;99.90;;;;;;5071120;28;20186;-83
2023/05/30 07:33:49;;;;;;;0.20;0.20;;;12.70;99.90;;;;;;5068451;28;20496;-85
2023/05/30 07:36:14;;;;;;;0.10;0.10;;;12.50;99.90;;;;;;5067014;28;20521;-86
2023/05/30 07:38:40;;;;;;;0.10;0.10;;;12.50;99.90;;;;;;5062323;28;20603;-85
2023/05/30 07:41:06;;;;;;;0.10;0.10;;;12.80;99.90;;;;;;5080733;28;20648;-86
2023/05/30 07:43:31;;;;;;;0.10;0.10;;;12.60;99.90;;;;;;5078627;28;20444;-84
2023/05/30 07:45:57;;;;;;;0.10;0.10;;;12.70;99.90;;;;;;5069615;28;20185;-85
2023/05/30 07:48:23;;;;;;;0.10;0.10;;;13.00;99.90;;;;;;5067393;28;20718;-85
2023/05/30 07:50:49;;;;;;;0.10;0.10;;;13.20;99.90;;;;;;5072056;28;20679;-85
2023/05/30 07:53:14;;;;;;;0.10;0.10;;;13.40;99.90;;;;;;5085176;28;20487;-86
2023/05/30 07:55:40;;;;;;;0.10;0.10;;;13.60;99.90;;;;;;5070763;28;20181;-85
2023/05/30 07:58:05;;;;;;;0.10;0.10;;;13.40;99.90;;;;;;5051238;28;20278;-86
2023/05/30 08:00:31;;;;;;;0.10;0.10;;;13.50;99.90;;;;;;5067295;28;20664;-86
2023/05/30 08:02:56;;;;;;;0.10;0.10;;;13.60;99.90;;;;;;5053238;28;20268;-88
2023/05/30 08:05:22;;;;;;;0.10;0.10;;;13.20;99.90;;;;;;5069883;28;20189;-85
2023/05/30 08:07:47;;;;;;;0.10;0.10;;;13.30;99.90;;;;;;5069431;28;20198;-86
2023/05/30 08:10:13;;;;;;;0.10;0.10;;;13.50;99.90;;;;;;5053677;28;20642;-86
2023/05/30 08:12:38;;;;;;;0.10;0.10;;;13.60;99.90;;;;;;5062030;28;20214;-87
2023/05/30 08:15:07;;;;;;;0.10;0.10;;;13.70;99.90;;;;;;5055046;28;20206;-87
2023/05/30 08:17:32;;;;;;;0.10;0.10;;;13.60;99.90;;;;;;5070446;28;20465;-87
2023/05/30 08:19:58;;;;;;;0.10;0.10;;;13.60;99.90;;;;;;5050164;28;20446;-87
2023/05/30 08:22:24;;;;;;;0.10;0.10;;;13.60;99.90;;;;;;5070531;28;20253;-86
2023/05/30 08:24:54;;;;;;;0.10;0.10;;;13.60;99.90;;;;;;5072631;28;20196;-86
2023/05/30 08:27:21;;;;;;;0.10;0.10;;;13.70;99.90;;;;;;5075399;28;20170;-87
2023/05/30 08:29:49;;;;;;;0.10;0.10;;;13.20;99.90;;;;;;5070848;28;20415;-87
2023/05/30 08:32:16;;;;;;;0.10;0.10;;;13.40;99.90;;;;;;5051203;28;20463;-87
2023/05/30 08:34:41;;;;;;;0.10;0.10;;;13.70;99.90;;;;;;5069473;28;20446;-86
2023/05/30 08:37:07;;;;;;;0.10;0.10;;;13.80;99.90;;;;;;5070167;28;20982;-87
2023/05/30 08:39:33;;;;;;;0.10;0.10;;;13.50;99.90;;;;;;5053036;28;20669;-86
2023/05/30 08:41:59;;;;;;;0.10;0.10;;;13.80;99.90;;;;;;5065404;28;20185;-85
2023/05/30 08:44:25;;;;;;;0.10;0.10;;;13.80;99.90;;;;;;5068890;28;20420;-88
2023/05/30 08:46:51;;;;;;;0.10;0.10;;;13.80;99.90;;;;;;5049218;28;20489;-86
2023/05/30 08:49:21;;;;;;;0.20;0.20;;;13.90;99.90;;;;;;5062847;28;20692;-85
2023/05/30 08:51:48;;;;;;;0.10;0.10;;;13.70;99.90;;;;;;5063686;28;20181;-86
2023/05/30 08:54:21;;;;;;;0.10;0.10;;;13.80;99.90;;;;;;5075080;28;20488;-86
2023/05/30 08:56:55;;;;;;;0.10;0.10;;;13.80;99.90;;;;;;5067501;28;20432;-86
2023/05/30 08:59:23;;;;;;;0.10;0.10;;;13.60;99.90;;;;;;5073950;28;20476;-87
2023/05/30 09:01:50;;;;;;;0.10;0.10;;;13.40;99.90;;;;;;5060509;28;20948;-86
2023/05/30 09:04:16;;;;;;;0.10;0.10;;;13.40;99.90;;;;;;5050114;28;20456;-86
2023/05/30 09:06:43;;;;;;;0.10;0.10;;;13.60;99.90;;;;;;5068204;28;20531;-86
2023/05/30 09:09:09;;;;;;;0.10;0.10;;;13.90;99.90;;;;;;5065500;28;20443;-86
2023/05/30 09:11:35;;;;;;;0.10;0.10;;;14.00;99.90;;;;;;5065433;28;20436;-86
2023/05/30 09:14:01;;;;;;;0.10;0.10;;;13.90;99.90;;;;;;5074751;28;20483;-88
2023/05/30 09:16:27;;;;;;;0.10;0.10;;;14.00;99.90;;;;;;5051592;28;20509;-87
2023/05/30 09:18:52;;;;;;;0.10;0.10;;;13.90;99.90;;;;;;5065649;28;20218;-87
2023/05/30 09:21:19;;;;;;;0.10;0.10;;;13.80;99.90;;;;;;5069933;28;20478;-86
2023/05/30 09:23:46;;;;;;;0.10;0.10;;;13.40;99.90;;;;;;5068037;28;20186;-86
2023/05/30 09:26:14;;;;;;;0.10;0.10;;;13.50;99.90;;;;;;5073673;28;20462;-87
2023/05/30 09:28:43;;;;;;;0.10;0.10;;;13.80;99.90;;;;;;5066423;28;20448;-86
2023/05/30 09:31:09;;;;;;;0.10;0.10;;;13.90;99.90;;;;;;5067547;28;20802;-86
2023/05/30 09:33:46;;;;;;;0.10;0.10;;;13.70;99.90;;;;;;5066978;28;20483;-87
2023/05/30 09:36:26;;;;;;;0.10;0.10;;;13.70;99.90;;;;;;5063783;28;20581;-86
2023/05/30 09:39:01;;;;;;;0.10;0.10;;;13.90;99.90;;;;;;5072919;28;20523;-86
2023/05/30 09:41:28;;;;;;;0.10;0.10;;;14.00;99.90;;;;;;5063558;28;21027;-87
2023/05/30 09:43:55;;;;;;;0.10;0.10;;;14.00;99.90;;;;;;5050366;28;20793;-87
2023/05/30 09:46:26;;;;;;;0.10;0.10;;;14.10;99.90;;;;;;5044603;28;20521;-86
2023/05/30 09:48:52;;;;;;;0.10;0.10;;;14.10;99.90;;;;;;5069177;28;20846;-87
2023/05/30 09:51:22;;;;;;;0.10;0.10;;;14.00;99.90;;;;;;5080185;28;20449;-86
2023/05/30 09:54:02;;;;;;;0.10;0.10;;;14.00;99.90;;;;;;5064197;28;20532;-86
2023/05/30 09:56:33;;;;;;;0.10;0.10;;;14.00;99.90;;;;;;5078996;28;21073;-86
2023/05/30 09:59:02;;;;;;;0.10;0.10;;;14.10;99.90;;;;;;5061485;28;20480;-88
2023/05/30 10:01:38;;;;;;;0.10;0.10;;;14.10;99.90;;;;;;5064989;28;20443;-86
2023/05/30 10:04:12;;;;;;;0.10;0.10;;;14.00;99.90;;;;;;5072671;28;20444;-84
2023/05/30 10:06:43;;;;;;;0.10;0.10;;;14.10;99.90;;;;;;5062476;28;20478;-85
2023/05/30 10:09:11;;;;;;;0.10;0.10;;;14.20;99.90;;;;;;5075717;28;20448;-86
2023/05/30 10:11:40;;;;;;;0.10;0.10;;;14.00;99.90;;;;;;5083515;28;20436;-86
2023/05/30 10:14:07;;;;;;;0.10;0.10;;;14.00;99.90;;;;;;5052183;28;20533;-86
2023/05/30 10:16:36;;;;;;;0.10;0.10;;;14.20;99.90;;;;;;5067477;28;20536;-86
2023/05/30 10:19:10;;;;;;;0.10;0.10;;;14.30;99.90;;;;;;5081969;28;20447;-85
2023/05/30 10:21:38;;;;;;;0.10;0.10;;;14.40;99.90;;;;;;5069171;28;20477;-85
2023/05/30 10:24:06;;;;;;;0.10;0.10;;;14.50;99.90;;;;;;5066611;28;20448;-85
2023/05/30 10:26:35;;;;;;;0.10;0.10;;;14.60;99.90;;;;;;5066173;28;20474;-85
2023/05/30 10:29:07;;;;;;;0.10;0.10;;;14.70;99.90;;;;;;5072201;28;20521;-85
2023/05/30 10:31:34;;;;;;;0.10;0.10;;;14.60;99.90;;;;;;5073041;28;20436;-85
2023/05/30 10:34:02;;;;;;;0.10;0.10;;;14.50;99.90;;;;;;5063483;28;21054;-86
2023/05/30 10:36:28;;;;;;;0.10;0.10;;;14.50;99.90;;;;;;5054683;28;20447;-85
2023/05/30 10:39:15;;;;;;;0.10;0.10;;;14.50;99.90;;;;;;5071064;28;20831;-86
2023/05/30 10:42:14;;;;;;;0.10;0.10;;;14.50;99.90;;;;;;5050559;28;20443;-86
2023/05/30 10:44:55;;;;;;;0.10;0.10;;;14.60;99.90;;;;;;5039463;28;20487;-87
2023/05/30 10:48:02;;;;;;;0.10;0.10;;;14.60;99.90;;;;;;5068198;28;20553;-87
2023/05/30 10:50:38;;;;;;;0.10;0.10;;;14.40;99.90;;;;;;5052057;28;20443;-86
2023/05/30 10:53:19;;;;;;;0.10;0.10;;;14.30;99.90;;;;;;5070279;28;20476;-86
2023/05/30 10:55:47;;;;;;;0.10;0.10;;;14.60;99.90;;;;;;5059707;28;20458;-86
2023/05/30 10:58:42;;;;;;;0.10;0.10;;;14.80;99.90;;;;;;5069362;28;20507;-87
2023/05/30 11:01:27;;;;;;;0.10;0.10;;;15.10;99.90;;;;;;5060015;28;20456;-87
2023/05/30 11:04:09;;;;;;;0.10;0.10;;;15.30;99.90;;;;;;5071690;28;20427;-87
2023/05/30 11:06:35;;;;;;;0.10;0.10;;;15.20;99.90;;;;;;5068443;28;20497;-87
2023/05/30 11:09:12;;;;;;;0.10;0.10;;;15.30;99.90;;;;;;5073418;28;20479;-86
2023/05/30 11:11:46;;;;;;;0.10;0.10;;;15.40;99.90;;;;;;5051480;28;20972;-86
2023/05/30 11:14:13;;;;;;;0.10;0.10;;;15.50;99.90;;;;;;5068943;28;20475;-86
2023/05/30 11:17:00;;;;;;;0.10;0.10;;;15.70;99.90;;;;;;5070104;28;20958;-87
2023/05/30 11:19:37;;;;;;;0.10;0.10;;;15.70;99.90;;;;;;5046232;28;20455;-86
2023/05/30 11:22:08;;;;;;;0.10;0.10;;;15.50;99.90;;;;;;5068674;28;20435;-86
2023/05/30 11:24:34;;;;;;;0.10;0.10;;;15.60;99.90;;;;;;5077149;28;20443;-88
2023/05/30 11:27:16;;;;;;;0.10;0.10;;;15.50;99.90;;;;;;5073458;28;20859;-85
2023/05/30 11:29:55;;;;;;;0.10;0.10;;;15.40;99.90;;;;;;5053378;28;20189;-85
2023/05/30 11:32:24;;;;;;;0.10;0.10;;;15.50;99.90;;;;;;5072481;28;20456;-86
2023/05/30 11:35:00;;;;;;;0.10;0.10;;;15.60;99.90;;;;;;5069944;28;20428;-86
2023/05/30 11:37:28;;;;;;;0.10;0.10;;;15.70;99.90;;;;;;5073425;28;20468;-86
2023/05/30 11:39:55;;;;;;;0.10;0.10;;;15.80;99.90;;;;;;5069615;28;20476;-86
2023/05/30 11:42:21;;;;;;;0.10;0.10;;;16.20;99.90;;;;;;5086988;28;20426;-85
2023/05/30 11:44:47;;;;;;;0.10;0.10;;;16.20;99.90;;;;;;5091289;28;20480;-86
2023/05/30 11:47:14;;;;;;;0.10;0.10;;;16.20;99.90;;;;;;5071094;28;20448;-85
2023/05/30 11:49:41;;;;;;;0.10;0.10;;;16.20;99.90;;;;;;5071053;28;20178;-84
2023/05/30 11:52:07;;;;;;;0.10;0.10;;;16.00;99.90;;;;;;5072121;28;21005;-84
2023/05/30 11:54:33;;;;;;;0.10;0.10;;;16.20;99.90;;;;;;5072564;28;20481;-85
2023/05/30 11:56:59;;;;;;;0.10;0.10;;;16.60;99.90;;;;;;5051819;28;20445;-86
2023/05/30 11:59:25;;;;;;;0.10;0.10;;;16.70;99.90;;;;;;5073088;28;20577;-85
2023/05/30 12:02:00;;;;;;;0.10;0.10;;;16.60;99.90;;;;;;5063859;28;20717;-85
2023/05/30 12:04:28;;;;;;;0.10;0.10;;;16.30;99.90;;;;;;5073418;28;20483;-85
2023/05/30 12:06:59;;;;;;;0.10;0.10;;;16.40;99.90;;;;;;5067927;28;20527;-85
2023/05/30 12:09:25;;;;;;;0.10;0.10;;;16.50;99.90;;;;;;5069810;28;20562;-85
2023/05/30 12:11:58;;;;;;;0.10;0.10;;;16.60;99.90;;;;;;5077701;28;20442;-87
2023/05/30 12:14:37;;;;;;;0.10;0.10;;;16.30;99.90;;;;;;5067090;28;20332;-86
2023/05/30 12:17:08;;;;;;;0.10;0.10;;;16.10;99.90;;;;;;5068150;28;20435;-86
2023/05/30 12:19:33;;;;;;;0.10;0.10;;;16.50;99.90;;;;;;5068799;28;20524;-86
2023/05/30 12:22:03;;;;;;;0.10;0.10;;;16.60;99.90;;;;;;5071073;28;20518;-87
2023/05/30 12:24:29;;;;;;;0.10;0.10;;;16.50;99.90;;;;;;5074985;28;20509;-87
2023/05/30 12:26:56;;;;;;;0.10;0.10;;;16.60;99.90;;;;;;5069500;28;20465;-86
2023/05/30 12:29:25;;;;;;;0.10;0.10;;;16.70;99.90;;;;;;5064867;28;20440;-87
2023/05/30 12:31:52;;;;;;;0.10;0.10;;;16.90;99.90;;;;;;5058030;28;20428;-87
2023/05/30 12:34:18;;;;;;;0.10;0.10;;;17.00;99.90;;;;;;5052150;28;20850;-87
2023/05/30 12:36:46;;;;;;;0.10;0.10;;;16.90;99.90;;;;;;5070075;28;20412;-88
2023/05/30 12:39:13;;;;;;;0.10;0.10;;;17.20;99.90;;;;;;5062054;28;20448;-87
2023/05/30 12:41:40;;;;;;;0.10;0.10;;;17.60;99.90;;;;;;5067407;28;20444;-87
2023/05/30 12:44:07;;;;;;;0.10;0.10;;;17.50;99.90;;;;;;5072936;28;20541;-87
2023/05/30 12:46:41;;;;;;;0.10;0.10;;;18.00;99.90;;;;;;5069902;28;20843;-87
2023/05/30 12:49:07;;;;;;;0.10;0.00;;;18.10;99.90;;;;;;5069529;28;20890;-88
2023/05/30 12:51:33;;;;;;;0.10;0.00;;;18.60;99.90;;;;;;5071837;28;20439;-88